createdAt,value
2023-03-10T00:00:39.098Z,8.66
2023-03-10T00:01:39.072Z,8.64
2023-03-10T00:02:39.078Z,8.63
2023-03-10T00:03:39.050Z,8.64
2023-03-10T00:04:39.160Z,8.64
2023-03-10T00:05:39.135Z,8.64
2023-03-10T00:06:39.028Z,8.61
2023-03-10T00:07:39.017Z,8.55
2023-03-10T00:08:39.010Z,8.60
2023-03-10T00:09:39.033Z,8.58
2023-03-10T00:10:38.980Z,8.61
2023-03-10T00:11:38.972Z,8.61
2023-03-10T00:12:38.976Z,8.60
2023-03-10T00:13:38.947Z,8.61
2023-03-10T00:14:38.935Z,8.63
2023-03-10T00:15:38.954Z,8.58
2023-03-10T00:16:38.925Z,8.48
2023-03-10T00:17:38.901Z,8.53
2023-03-10T00:18:38.918Z,8.48
2023-03-10T00:19:38.877Z,8.51
2023-03-10T00:20:38.866Z,8.51
2023-03-10T00:21:38.854Z,8.53
2023-03-10T00:22:38.857Z,8.56
2023-03-10T00:23:38.828Z,8.46
2023-03-10T00:24:38.826Z,8.51
2023-03-10T00:25:38.845Z,8.52
2023-03-10T00:26:38.805Z,8.52
2023-03-10T00:27:38.784Z,8.49
2023-03-10T00:28:38.777Z,8.52
2023-03-10T00:29:38.767Z,8.48
2023-03-10T00:30:38.771Z,8.52
2023-03-10T00:31:38.769Z,8.49
2023-03-10T00:32:38.823Z,8.61
2023-03-10T00:33:38.725Z,8.61
2023-03-10T00:34:38.728Z,8.63
2023-03-10T00:35:38.810Z,8.67
2023-03-10T00:36:38.695Z,8.71
2023-03-10T00:37:38.889Z,8.70
2023-03-10T00:38:38.670Z,8.76
2023-03-10T00:39:38.667Z,8.71
2023-03-10T00:40:38.659Z,8.67
2023-03-10T00:41:38.679Z,8.71
2023-03-10T00:42:38.636Z,8.63
2023-03-10T00:43:38.627Z,8.71
2023-03-10T00:44:38.612Z,8.61
2023-03-10T00:45:38.801Z,8.70
2023-03-10T00:46:38.834Z,8.61
2023-03-10T00:47:38.572Z,8.66
2023-03-10T00:48:38.564Z,8.61
2023-03-10T00:49:38.564Z,8.66
2023-03-10T00:50:38.543Z,8.66
2023-03-10T00:51:38.532Z,8.63
2023-03-10T00:52:38.525Z,8.63
2023-03-10T00:53:38.514Z,8.64
2023-03-10T00:54:38.509Z,8.60
2023-03-10T00:55:38.689Z,8.56
2023-03-10T00:56:38.477Z,8.60
2023-03-10T00:57:38.510Z,8.63
2023-03-10T00:58:38.464Z,8.45
2023-03-10T00:59:50.043Z,8.46
2023-03-10T01:00:38.437Z,8.51
2023-03-10T01:01:38.530Z,8.60
2023-03-10T01:02:38.442Z,8.48
2023-03-10T01:03:38.411Z,8.51
2023-03-10T01:04:38.446Z,8.53
2023-03-10T01:05:38.393Z,8.46
2023-03-10T01:06:38.372Z,8.58
2023-03-10T01:07:38.354Z,8.52
2023-03-10T01:08:38.347Z,8.58
2023-03-10T01:09:38.349Z,8.48
2023-03-10T01:10:38.332Z,8.49
2023-03-10T01:11:38.322Z,8.46
2023-03-10T01:12:38.300Z,8.42
2023-03-10T01:13:40.946Z,8.46
2023-03-10T01:14:38.285Z,8.48
2023-03-10T01:15:38.359Z,8.51
2023-03-10T01:16:38.262Z,8.45
2023-03-10T01:17:38.268Z,8.64
2023-03-10T01:18:38.234Z,8.67
2023-03-10T01:19:38.304Z,8.70
2023-03-10T01:20:38.222Z,8.71
2023-03-10T01:21:38.210Z,8.67
2023-03-10T01:22:38.188Z,8.66
2023-03-10T01:23:38.180Z,8.66
2023-03-10T01:24:38.169Z,8.63
2023-03-10T01:25:38.160Z,8.70
2023-03-10T01:26:38.158Z,8.81
2023-03-10T01:27:38.164Z,8.76
2023-03-10T01:28:38.127Z,8.84
2023-03-10T01:29:38.134Z,8.76
2023-03-10T01:30:38.310Z,8.81
2023-03-10T01:31:38.141Z,8.84
2023-03-10T01:32:38.138Z,8.70
2023-03-10T01:33:38.073Z,8.70
2023-03-10T01:34:38.060Z,8.63
2023-03-10T01:35:38.078Z,8.66
2023-03-10T01:36:38.044Z,8.63
2023-03-10T01:37:38.032Z,8.64
2023-03-10T01:38:38.013Z,8.69
2023-03-10T01:39:38.014Z,8.71
2023-03-10T01:40:37.988Z,8.73
2023-03-10T01:41:37.980Z,8.79
2023-03-10T01:42:37.999Z,8.79
2023-03-10T01:43:37.962Z,8.87
2023-03-10T01:44:37.953Z,8.82
2023-03-10T01:45:37.955Z,8.76
2023-03-10T01:46:38.062Z,8.79
2023-03-10T01:47:37.914Z,8.79
2023-03-10T01:48:37.903Z,8.87
2023-03-10T01:49:37.911Z,8.78
2023-03-10T01:50:37.884Z,8.85
2023-03-10T01:51:37.900Z,8.92
2023-03-10T01:52:37.887Z,8.92
2023-03-10T01:53:37.853Z,8.95
2023-03-10T01:54:37.834Z,8.97
2023-03-10T01:55:37.861Z,8.95
2023-03-10T01:56:37.818Z,9.04
2023-03-10T01:57:37.824Z,8.97
2023-03-10T01:58:37.790Z,9.06
2023-03-10T01:59:37.779Z,9.11
2023-03-10T02:00:37.831Z,8.99
2023-03-10T02:01:38.053Z,9.02
2023-03-10T02:02:37.746Z,9.03
2023-03-10T02:03:37.938Z,9.11
2023-03-10T02:04:37.723Z,9.08
2023-03-10T02:05:37.716Z,9.08
2023-03-10T02:06:37.704Z,9.13
2023-03-10T02:07:39.356Z,9.13
2023-03-10T02:08:37.682Z,9.04
2023-03-10T02:09:37.673Z,9.22
2023-03-10T02:10:37.664Z,9.18
2023-03-10T02:11:37.677Z,9.10
2023-03-10T02:12:37.653Z,9.08
2023-03-10T02:13:37.632Z,9.14
2023-03-10T02:14:37.625Z,9.04
2023-03-10T02:15:37.610Z,9.03
2023-03-10T02:16:37.695Z,9.08
2023-03-10T02:17:37.647Z,9.13
2023-03-10T02:18:37.583Z,9.11
2023-03-10T02:19:37.564Z,9.11
2023-03-10T02:20:37.557Z,9.02
2023-03-10T02:21:37.555Z,9.16
2023-03-10T02:22:37.530Z,9.04
2023-03-10T02:23:40.982Z,9.00
2023-03-10T02:24:37.513Z,8.95
2023-03-10T02:25:37.510Z,8.89
2023-03-10T02:26:37.503Z,8.99
2023-03-10T02:27:37.478Z,9.03
2023-03-10T02:28:37.474Z,9.06
2023-03-10T02:29:45.529Z,9.10
2023-03-10T02:30:37.468Z,9.13
2023-03-10T02:31:37.509Z,9.06
2023-03-10T02:32:37.521Z,9.13
2023-03-10T02:33:37.449Z,9.04
2023-03-10T02:34:37.402Z,9.10
2023-03-10T02:35:37.485Z,9.03
2023-03-10T02:36:37.408Z,9.10
2023-03-10T02:37:37.382Z,9.03
2023-03-10T02:38:37.358Z,8.95
2023-03-10T02:39:37.345Z,9.06
2023-03-10T02:40:37.392Z,9.04
2023-03-10T02:41:37.334Z,9.00
2023-03-10T02:42:37.313Z,9.06
2023-03-10T02:43:37.323Z,9.06
2023-03-10T02:44:37.370Z,9.13
2023-03-10T02:45:37.381Z,9.08
2023-03-10T02:46:37.299Z,9.04
2023-03-10T02:47:37.319Z,9.04
2023-03-10T02:48:37.253Z,9.08
2023-03-10T02:49:37.298Z,9.16
2023-03-10T02:50:37.239Z,9.26
2023-03-10T02:51:37.252Z,9.28
2023-03-10T02:52:37.284Z,9.34
2023-03-10T02:53:37.195Z,9.46
2023-03-10T02:54:37.187Z,9.47
2023-03-10T02:55:37.208Z,9.48
2023-03-10T02:56:37.164Z,9.64
2023-03-10T02:57:37.206Z,9.61
2023-03-10T02:58:37.155Z,9.64
2023-03-10T02:59:37.268Z,9.61
2023-03-10T03:00:37.193Z,9.62
2023-03-10T03:01:37.114Z,9.61
2023-03-10T03:02:37.163Z,9.69
2023-03-10T03:03:37.273Z,9.64
2023-03-10T03:04:37.102Z,9.62
2023-03-10T03:05:37.094Z,9.73
2023-03-10T03:06:37.132Z,9.69
2023-03-10T03:07:37.066Z,9.59
2023-03-10T03:08:37.037Z,9.61
2023-03-10T03:09:37.022Z,9.64
2023-03-10T03:10:37.010Z,9.56
2023-03-10T03:11:37.104Z,9.54
2023-03-10T03:12:37.015Z,9.58
2023-03-10T03:13:37.224Z,9.59
2023-03-10T03:14:37.038Z,9.50
2023-03-10T03:15:36.966Z,9.50
2023-03-10T03:16:36.971Z,9.40
2023-03-10T03:17:37.084Z,9.32
2023-03-10T03:18:36.922Z,9.34
2023-03-10T03:19:36.914Z,9.36
2023-03-10T03:20:36.914Z,9.40
2023-03-10T03:21:36.917Z,9.44
2023-03-10T03:22:36.902Z,9.40
2023-03-10T03:23:36.907Z,9.54
2023-03-10T03:24:36.982Z,9.59
2023-03-10T03:25:36.890Z,9.64
2023-03-10T03:26:36.913Z,9.54
2023-03-10T03:27:36.916Z,9.56
2023-03-10T03:28:36.820Z,9.48
2023-03-10T03:29:36.809Z,9.54
2023-03-10T03:30:36.907Z,9.58
2023-03-10T03:31:36.841Z,9.58
2023-03-10T03:32:36.868Z,9.65
2023-03-10T03:33:36.780Z,9.61
2023-03-10T03:34:36.761Z,9.59
2023-03-10T03:35:36.884Z,9.61
2023-03-10T03:36:36.754Z,9.62
2023-03-10T03:37:36.820Z,9.72
2023-03-10T03:38:36.787Z,9.69
2023-03-10T03:39:36.781Z,9.65
2023-03-10T03:40:36.758Z,9.59
2023-03-10T03:41:36.671Z,9.62
2023-03-10T03:42:36.720Z,9.58
2023-03-10T03:43:36.694Z,9.72
2023-03-10T03:44:36.648Z,9.80
2023-03-10T03:45:36.690Z,9.79
2023-03-10T03:46:36.845Z,9.82
2023-03-10T03:47:36.627Z,9.95
2023-03-10T03:48:36.605Z,9.95
2023-03-10T03:49:36.795Z,9.91
2023-03-10T03:50:36.705Z,9.91
2023-03-10T03:51:36.574Z,9.77
2023-03-10T03:52:36.648Z,9.76
2023-03-10T03:53:36.586Z,9.69
2023-03-10T03:54:36.538Z,9.59
2023-03-10T03:55:36.554Z,9.64
2023-03-10T03:56:36.528Z,9.64
2023-03-10T03:57:36.528Z,9.62
2023-03-10T03:58:36.500Z,9.61
2023-03-10T03:59:36.491Z,9.64
2023-03-10T04:00:36.548Z,9.62
2023-03-10T04:01:36.492Z,9.77
2023-03-10T04:02:36.544Z,9.79
2023-03-10T04:03:36.513Z,9.89
2023-03-10T04:04:36.427Z,9.86
2023-03-10T04:05:36.421Z,9.89
2023-03-10T04:06:36.426Z,9.89
2023-03-10T04:07:36.411Z,9.91
2023-03-10T04:08:36.385Z,9.91
2023-03-10T04:09:36.415Z,9.95
2023-03-10T04:10:36.457Z,9.82
2023-03-10T04:11:36.391Z,9.80
2023-03-10T04:12:36.756Z,9.95
2023-03-10T04:13:36.350Z,9.94
2023-03-10T04:14:36.462Z,9.91
2023-03-10T04:15:36.500Z,9.97
2023-03-10T04:16:36.322Z,10.09
2023-03-10T04:17:36.399Z,10.04
2023-03-10T04:18:36.327Z,10.10
2023-03-10T04:19:36.337Z,10.07
2023-03-10T04:20:36.258Z,10.05
2023-03-10T04:21:36.268Z,10.09
2023-03-10T04:22:36.239Z,10.12
2023-03-10T04:23:36.274Z,10.15
2023-03-10T04:24:36.221Z,10.13
2023-03-10T04:25:36.377Z,10.17
2023-03-10T04:26:36.222Z,10.01
2023-03-10T04:27:36.190Z,10.09
2023-03-10T04:28:36.211Z,10.01
2023-03-10T04:29:36.188Z,9.97
2023-03-10T04:30:36.162Z,9.98
2023-03-10T04:31:36.296Z,10.04
2023-03-10T04:32:36.465Z,10.07
2023-03-10T04:33:36.250Z,10.09
2023-03-10T04:34:36.111Z,10.07
2023-03-10T04:35:36.199Z,10.17
2023-03-10T04:36:36.183Z,10.04
2023-03-10T04:37:36.090Z,10.07
2023-03-10T04:38:36.077Z,10.10
2023-03-10T04:39:36.164Z,10.07
2023-03-10T04:40:36.075Z,10.15
2023-03-10T04:41:36.248Z,10.02
2023-03-10T04:42:36.036Z,10.09
2023-03-10T04:43:36.016Z,10.04
2023-03-10T04:44:36.041Z,10.07
2023-03-10T04:45:36.001Z,10.10
2023-03-10T04:46:36.046Z,10.04
2023-03-10T04:47:35.978Z,10.05
2023-03-10T04:48:36.362Z,10.07
2023-03-10T04:49:35.958Z,10.16
2023-03-10T04:50:35.963Z,10.13
2023-03-10T04:51:35.937Z,10.10
2023-03-10T04:52:35.920Z,10.16
2023-03-10T04:53:35.976Z,10.10
2023-03-10T04:54:35.918Z,10.17
2023-03-10T04:55:35.888Z,10.09
2023-03-10T04:56:35.889Z,10.16
2023-03-10T04:57:35.933Z,10.05
2023-03-10T04:58:35.867Z,10.15
2023-03-10T05:00:36.021Z,9.99
2023-03-10T05:01:35.896Z,9.95
2023-03-10T05:02:35.904Z,10.02
2023-03-10T05:03:35.803Z,10.07
2023-03-10T05:04:35.894Z,9.98
2023-03-10T05:05:37.549Z,9.99
2023-03-10T05:06:35.767Z,9.97
2023-03-10T05:07:35.761Z,9.97
2023-03-10T05:08:35.742Z,9.99
2023-03-10T05:09:35.832Z,9.99
2023-03-10T05:10:35.746Z,10.04
2023-03-10T05:11:35.724Z,10.02
2023-03-10T05:12:35.809Z,9.95
2023-03-10T05:13:35.811Z,9.89
2023-03-10T05:14:35.678Z,9.91
2023-03-10T05:15:35.698Z,9.91
2023-03-10T05:16:35.737Z,9.91
2023-03-10T05:17:35.830Z,9.86
2023-03-10T05:18:35.645Z,9.91
2023-03-10T05:19:35.845Z,9.84
2023-03-10T05:20:35.632Z,9.89
2023-03-10T05:21:35.837Z,9.91
2023-03-10T05:22:35.621Z,9.94
2023-03-10T05:23:35.665Z,9.87
2023-03-10T05:24:35.821Z,9.97
2023-03-10T05:25:35.559Z,9.98
2023-03-10T05:26:35.852Z,10.04
2023-03-10T05:27:35.548Z,10.07
2023-03-10T05:28:35.541Z,10.12
2023-03-10T05:29:35.608Z,10.15
2023-03-10T05:30:35.514Z,10.10
2023-03-10T05:31:35.651Z,10.07
2023-03-10T05:32:35.581Z,10.25
2023-03-10T05:33:35.480Z,10.15
2023-03-10T05:34:35.532Z,10.15
2023-03-10T05:35:35.512Z,10.17
2023-03-10T05:36:35.457Z,10.20
2023-03-10T05:37:35.472Z,10.13
2023-03-10T05:38:35.451Z,10.04
2023-03-10T05:39:35.437Z,10.13
2023-03-10T05:40:35.456Z,10.15
2023-03-10T05:41:35.425Z,10.07
2023-03-10T05:42:35.404Z,9.99
2023-03-10T05:43:35.384Z,9.98
2023-03-10T05:44:35.378Z,9.97
2023-03-10T05:45:35.384Z,10.02
2023-03-10T05:46:35.432Z,9.99
2023-03-10T05:47:35.340Z,9.99
2023-03-10T05:48:35.333Z,9.99
2023-03-10T05:49:37.394Z,9.99
2023-03-10T05:50:35.321Z,10.12
2023-03-10T05:51:35.297Z,10.17
2023-03-10T05:52:35.492Z,10.16
2023-03-10T05:53:35.303Z,10.20
2023-03-10T05:54:35.280Z,10.16
2023-03-10T05:55:35.258Z,10.12
2023-03-10T05:56:35.259Z,10.10
2023-03-10T05:57:35.272Z,10.15
2023-03-10T05:58:35.301Z,10.17
2023-03-10T05:59:35.201Z,10.12
2023-03-10T06:00:35.219Z,10.12
2023-03-10T06:01:35.209Z,10.05
2023-03-10T06:02:35.181Z,9.95
2023-03-10T06:03:35.347Z,10.04
2023-03-10T06:04:35.168Z,9.97
2023-03-10T06:05:35.183Z,9.95
2023-03-10T06:06:35.171Z,9.99
2023-03-10T06:07:35.122Z,9.98
2023-03-10T06:08:35.121Z,9.95
2023-03-10T06:09:35.183Z,10.01
2023-03-10T06:10:35.123Z,9.99
2023-03-10T06:11:35.101Z,9.95
2023-03-10T06:12:35.072Z,9.99
2023-03-10T06:13:35.064Z,10.02
2023-03-10T06:14:35.070Z,10.09
2023-03-10T06:15:35.057Z,10.07
2023-03-10T06:16:35.140Z,10.09
2023-03-10T06:17:35.039Z,9.99
2023-03-10T06:18:35.033Z,9.97
2023-03-10T06:19:35.042Z,10.04
2023-03-10T06:20:34.996Z,10.12
2023-03-10T06:21:35.013Z,10.09
2023-03-10T06:22:35.185Z,10.04
2023-03-10T06:23:34.975Z,10.16
2023-03-10T06:24:34.949Z,10.13
2023-03-10T06:25:34.933Z,10.20
2023-03-10T06:26:34.946Z,10.12
2023-03-10T06:27:34.926Z,10.17
2023-03-10T06:28:34.915Z,10.15
2023-03-10T06:29:34.953Z,10.02
2023-03-10T06:30:35.123Z,10.10
2023-03-10T06:31:34.956Z,10.28
2023-03-10T06:32:35.008Z,10.34
2023-03-10T06:33:34.890Z,10.30
2023-03-10T06:34:34.900Z,10.30
2023-03-10T06:35:34.969Z,10.35
2023-03-10T06:36:34.842Z,10.34
2023-03-10T06:37:34.842Z,10.34
2023-03-10T06:38:34.826Z,10.33
2023-03-10T06:39:34.792Z,10.38
2023-03-10T06:40:34.812Z,10.33
2023-03-10T06:41:34.791Z,10.35
2023-03-10T06:42:34.765Z,10.40
2023-03-10T06:43:34.785Z,10.41
2023-03-10T06:44:34.769Z,10.48
2023-03-10T06:45:34.778Z,10.54
2023-03-10T06:46:34.730Z,10.61
2023-03-10T06:47:34.752Z,10.61
2023-03-10T06:48:34.724Z,10.60
2023-03-10T06:49:34.734Z,10.61
2023-03-10T06:50:34.745Z,10.63
2023-03-10T06:51:34.682Z,10.64
2023-03-10T06:52:34.671Z,10.68
2023-03-10T06:53:34.700Z,10.79
2023-03-10T06:54:34.630Z,10.71
2023-03-10T06:55:34.645Z,10.60
2023-03-10T06:56:34.658Z,10.67
2023-03-10T06:57:34.640Z,10.76
2023-03-10T06:58:34.629Z,10.79
2023-03-10T06:59:34.579Z,10.82
2023-03-10T07:00:34.622Z,10.86
2023-03-10T07:01:34.628Z,10.82
2023-03-10T07:02:34.567Z,10.87
2023-03-10T07:03:34.561Z,10.84
2023-03-10T07:04:34.609Z,10.78
2023-03-10T07:05:34.569Z,10.86
2023-03-10T07:06:34.522Z,10.82
2023-03-10T07:07:34.502Z,10.86
2023-03-10T07:08:34.507Z,10.87
2023-03-10T07:09:34.510Z,10.94
2023-03-10T07:10:34.466Z,11.00
2023-03-10T07:11:34.493Z,11.11
2023-03-10T07:12:34.491Z,11.18
2023-03-10T07:13:34.479Z,11.80
2023-03-10T07:14:34.457Z,12.45
2023-03-10T07:15:34.412Z,13.22
2023-03-10T07:16:34.469Z,13.81
2023-03-10T07:17:34.437Z,14.33
2023-03-10T07:18:34.411Z,14.55
2023-03-10T07:19:34.383Z,14.89
2023-03-10T07:20:34.376Z,15.25
2023-03-10T07:21:34.433Z,15.61
2023-03-10T07:22:34.372Z,16.12
2023-03-10T07:23:34.374Z,16.33
2023-03-10T07:24:34.379Z,16.58
2023-03-10T07:25:34.376Z,16.91
2023-03-10T07:26:34.351Z,17.01
2023-03-10T07:27:34.362Z,16.91
2023-03-10T07:28:34.321Z,16.72
2023-03-10T07:29:36.942Z,16.57
2023-03-10T07:30:34.419Z,16.60
2023-03-10T07:31:34.308Z,16.78
2023-03-10T07:32:34.379Z,16.42
2023-03-10T07:33:34.308Z,16.51
2023-03-10T07:34:34.328Z,16.60
2023-03-10T07:35:36.769Z,16.60
2023-03-10T07:36:34.304Z,16.23
2023-03-10T07:37:34.358Z,15.94
2023-03-10T07:38:34.338Z,16.21
2023-03-10T07:39:34.314Z,16.39
2023-03-10T07:40:34.315Z,16.90
2023-03-10T07:41:34.272Z,17.19
2023-03-10T07:42:34.316Z,16.89
2023-03-10T07:43:34.301Z,17.42
2023-03-10T07:44:34.327Z,17.09
2023-03-10T07:45:34.297Z,17.85
2023-03-10T07:46:34.428Z,18.18
2023-03-10T07:47:34.483Z,18.70
2023-03-10T07:48:34.269Z,18.93
2023-03-10T07:49:34.496Z,19.34
2023-03-10T07:50:34.270Z,19.12
2023-03-10T07:51:34.269Z,18.44
2023-03-10T07:52:34.262Z,17.72
2023-03-10T07:53:34.263Z,17.24
2023-03-10T07:54:34.233Z,16.78
2023-03-10T07:55:34.248Z,16.38
2023-03-10T07:56:34.273Z,16.01
2023-03-10T07:57:34.233Z,15.65
2023-03-10T07:58:34.426Z,15.33
2023-03-10T07:59:34.258Z,15.02
2023-03-10T08:00:34.217Z,14.62
2023-03-10T08:01:34.214Z,14.55
2023-03-10T08:02:34.231Z,14.96
2023-03-10T08:03:34.354Z,14.58
2023-03-10T08:04:34.382Z,14.23
2023-03-10T08:05:34.187Z,14.26
2023-03-10T08:06:34.189Z,14.35
2023-03-10T08:07:34.198Z,14.12
2023-03-10T08:08:34.192Z,14.03
2023-03-10T08:09:34.213Z,13.96
2023-03-10T08:10:34.215Z,13.90
2023-03-10T08:11:34.159Z,13.78
2023-03-10T08:12:34.207Z,13.52
2023-03-10T08:13:34.268Z,13.46
2023-03-10T08:14:34.160Z,13.31
2023-03-10T08:15:34.223Z,13.19
2023-03-10T08:16:34.148Z,13.18
2023-03-10T08:17:34.146Z,13.31
2023-03-10T08:18:34.122Z,13.44
2023-03-10T08:19:34.185Z,13.25
2023-03-10T08:20:34.109Z,13.28
2023-03-10T08:21:34.138Z,13.30
2023-03-10T08:22:34.143Z,13.42
2023-03-10T08:23:34.332Z,13.41
2023-03-10T08:24:34.323Z,13.42
2023-03-10T08:25:34.144Z,13.42
2023-03-10T08:26:34.266Z,13.41
2023-03-10T08:27:34.117Z,13.47
2023-03-10T08:28:34.059Z,13.42
2023-03-10T08:29:34.077Z,13.42
2023-03-10T08:30:34.063Z,13.41
2023-03-10T08:31:34.115Z,13.38
2023-03-10T08:32:34.449Z,13.31
2023-03-10T08:33:34.037Z,13.25
2023-03-10T08:34:34.049Z,13.08
2023-03-10T08:35:34.058Z,13.08
2023-03-10T08:36:34.034Z,13.04
2023-03-10T08:37:34.030Z,13.09
2023-03-10T08:38:34.052Z,13.37
2023-03-10T08:39:33.969Z,13.37
2023-03-10T08:40:34.018Z,13.50
2023-03-10T08:41:36.203Z,13.47
2023-03-10T08:42:33.990Z,13.65
2023-03-10T08:43:33.970Z,13.62
2023-03-10T08:44:34.175Z,14.23
2023-03-10T08:45:33.960Z,14.55
2023-03-10T08:46:33.972Z,15.07
2023-03-10T08:47:33.943Z,15.59
2023-03-10T08:48:33.939Z,15.64
2023-03-10T08:49:33.944Z,16.39
2023-03-10T08:50:33.900Z,17.04
2023-03-10T08:51:33.911Z,17.56
2023-03-10T08:52:33.895Z,17.90
2023-03-10T08:53:33.888Z,18.19
2023-03-10T08:54:33.891Z,17.20
2023-03-10T08:55:33.877Z,17.63
2023-03-10T08:56:33.895Z,18.37
2023-03-10T08:57:33.899Z,18.63
2023-03-10T08:58:33.892Z,18.40
2023-03-10T08:59:33.864Z,19.09
2023-03-10T09:00:33.852Z,19.76
2023-03-10T09:01:33.945Z,19.91
2023-03-10T09:02:33.842Z,20.24
2023-03-10T09:03:33.922Z,20.29
2023-03-10T09:04:33.839Z,20.47
2023-03-10T09:05:33.831Z,20.69
2023-03-10T09:06:33.839Z,20.25
2023-03-10T09:07:33.846Z,20.10
2023-03-10T09:08:33.811Z,19.45
2023-03-10T09:09:33.828Z,19.30
2023-03-10T09:10:33.842Z,19.21
2023-03-10T09:11:33.803Z,19.12
2023-03-10T09:12:37.649Z,18.63
2023-03-10T09:13:33.813Z,17.76
2023-03-10T09:14:33.799Z,17.44
2023-03-10T09:15:33.797Z,17.74
2023-03-10T09:16:33.915Z,18.10
2023-03-10T09:17:33.780Z,17.87
2023-03-10T09:18:33.801Z,17.52
2023-03-10T09:19:33.790Z,17.06
2023-03-10T09:20:33.789Z,16.79
2023-03-10T09:21:33.989Z,16.66
2023-03-10T09:22:33.780Z,16.46
2023-03-10T09:23:33.784Z,16.38
2023-03-10T09:24:33.756Z,16.20
2023-03-10T09:25:34.391Z,16.13
2023-03-10T09:26:33.764Z,16.15
2023-03-10T09:27:36.385Z,16.01
2023-03-10T09:28:33.751Z,16.21
2023-03-10T09:29:42.946Z,16.72
2023-03-10T09:30:33.737Z,17.45
2023-03-10T09:31:33.855Z,17.65
2023-03-10T09:32:33.806Z,17.80
2023-03-10T09:33:33.749Z,17.98
2023-03-10T09:34:33.736Z,17.98
2023-03-10T09:35:33.820Z,17.95
2023-03-10T09:36:33.817Z,18.01
2023-03-10T09:37:33.714Z,18.31
2023-03-10T09:38:33.729Z,18.80
2023-03-10T09:39:34.845Z,19.24
2023-03-10T09:40:33.709Z,19.41
2023-03-10T09:41:36.372Z,18.78
2023-03-10T09:42:37.821Z,18.93
2023-03-10T09:43:33.685Z,19.15
2023-03-10T09:44:33.692Z,19.18
2023-03-10T09:45:33.797Z,19.55
2023-03-10T09:46:33.706Z,19.91
2023-03-10T09:47:33.693Z,20.13
2023-03-10T09:48:33.723Z,19.99
2023-03-10T09:49:33.721Z,19.64
2023-03-10T09:50:33.716Z,19.09
2023-03-10T09:51:33.686Z,18.99
2023-03-10T09:52:33.694Z,18.66
2023-03-10T09:53:33.705Z,18.56
2023-03-10T09:54:33.659Z,18.19
2023-03-10T09:55:33.998Z,17.94
2023-03-10T09:56:33.668Z,17.68
2023-03-10T09:57:33.661Z,17.30
2023-03-10T09:58:33.691Z,17.09
2023-03-10T09:59:33.688Z,16.86
2023-03-10T10:00:33.684Z,16.79
2023-03-10T10:01:33.650Z,16.61
2023-03-10T10:02:33.638Z,16.58
2023-03-10T10:03:42.980Z,16.49
2023-03-10T10:04:33.704Z,16.33
2023-03-10T10:05:33.706Z,16.33
2023-03-10T10:06:33.642Z,16.21
2023-03-10T10:07:33.649Z,16.00
2023-03-10T10:08:33.601Z,15.88
2023-03-10T10:09:33.631Z,15.82
2023-03-10T10:10:33.628Z,15.67
2023-03-10T10:11:33.615Z,15.72
2023-03-10T10:12:33.591Z,15.90
2023-03-10T10:13:33.568Z,16.17
2023-03-10T10:14:33.560Z,16.26
2023-03-10T10:15:35.619Z,16.04
2023-03-10T10:16:34.981Z,15.91
2023-03-10T10:17:35.458Z,15.62
2023-03-10T10:18:33.593Z,15.42
2023-03-10T10:19:36.638Z,15.24
2023-03-10T10:20:33.564Z,15.03
2023-03-10T10:21:42.321Z,14.97
2023-03-10T10:22:33.531Z,14.92
2023-03-10T10:23:33.531Z,14.77
2023-03-10T10:24:33.519Z,14.69
2023-03-10T10:25:33.525Z,14.65
2023-03-10T10:26:33.500Z,14.55
2023-03-10T10:27:33.529Z,14.58
2023-03-10T10:28:33.516Z,14.51
2023-03-10T10:29:33.474Z,14.44
2023-03-10T10:30:33.547Z,14.40
2023-03-10T10:31:35.933Z,14.33
2023-03-10T10:32:33.549Z,14.29
2023-03-10T10:33:33.483Z,14.28
2023-03-10T10:34:33.454Z,14.15
2023-03-10T10:35:33.511Z,14.08
2023-03-10T10:36:33.449Z,14.29
2023-03-10T10:37:36.947Z,14.68
2023-03-10T10:38:33.420Z,14.91
2023-03-10T10:39:33.441Z,15.03
2023-03-10T10:40:33.423Z,15.44
2023-03-10T10:41:33.380Z,15.58
2023-03-10T10:42:33.376Z,15.86
2023-03-10T10:43:35.623Z,15.91
2023-03-10T10:44:33.584Z,15.90
2023-03-10T10:45:33.410Z,16.17
2023-03-10T10:46:33.405Z,16.33
2023-03-10T10:47:33.391Z,16.38
2023-03-10T10:48:33.566Z,16.29
2023-03-10T10:49:33.390Z,16.08
2023-03-10T10:50:33.371Z,15.90
2023-03-10T10:51:33.334Z,15.98
2023-03-10T10:52:33.361Z,16.13
2023-03-10T10:53:33.347Z,16.15
2023-03-10T10:54:33.317Z,16.21
2023-03-10T10:55:33.311Z,16.09
2023-03-10T10:56:33.313Z,16.04
2023-03-10T10:57:33.282Z,15.77
2023-03-10T10:58:33.308Z,15.64
2023-03-10T10:59:33.273Z,15.24
2023-03-10T11:00:33.311Z,15.15
2023-03-10T11:01:33.321Z,15.17
2023-03-10T11:02:33.338Z,15.19
2023-03-10T11:03:33.600Z,15.29
2023-03-10T11:04:33.269Z,15.29
2023-03-10T11:05:33.270Z,15.36
2023-03-10T11:06:33.224Z,15.33
2023-03-10T11:07:33.268Z,15.44
2023-03-10T11:08:33.209Z,15.40
2023-03-10T11:09:33.207Z,15.25
2023-03-10T11:10:33.225Z,15.21
2023-03-10T11:11:33.193Z,15.21
2023-03-10T11:12:33.181Z,15.15
2023-03-10T11:13:33.186Z,15.15
2023-03-10T11:14:33.232Z,15.17
2023-03-10T11:15:33.245Z,15.19
2023-03-10T11:16:33.176Z,15.04
2023-03-10T11:17:33.232Z,15.04
2023-03-10T11:18:33.143Z,15.03
2023-03-10T11:19:33.148Z,14.89
2023-03-10T11:20:33.137Z,14.66
2023-03-10T11:21:33.141Z,14.66
2023-03-10T11:22:33.137Z,14.55
2023-03-10T11:23:33.091Z,14.43
2023-03-10T11:24:33.087Z,14.41
2023-03-10T11:25:33.293Z,14.43
2023-03-10T11:26:33.076Z,14.40
2023-03-10T11:27:33.059Z,14.40
2023-03-10T11:28:33.260Z,14.47
2023-03-10T11:29:33.148Z,14.44
2023-03-10T11:30:33.054Z,14.29
2023-03-10T11:31:33.118Z,14.14
2023-03-10T11:32:33.059Z,14.03
2023-03-10T11:33:33.036Z,14.04
2023-03-10T11:34:33.034Z,13.96
2023-03-10T11:35:33.083Z,14.00
2023-03-10T11:36:33.940Z,13.99
2023-03-10T11:37:33.053Z,13.90
2023-03-10T11:38:32.989Z,13.85
2023-03-10T11:39:32.983Z,13.89
2023-03-10T11:40:32.968Z,13.90
2023-03-10T11:41:32.969Z,13.87
2023-03-10T11:42:32.985Z,13.78
2023-03-10T11:43:32.958Z,13.70
2023-03-10T11:44:32.950Z,13.75
2023-03-10T11:45:32.928Z,13.74
2023-03-10T11:46:33.052Z,13.77
2023-03-10T11:47:32.910Z,13.75
2023-03-10T11:48:32.907Z,13.75
2023-03-10T11:49:32.897Z,13.74
2023-03-10T11:50:32.892Z,13.79
2023-03-10T11:51:33.091Z,13.85
2023-03-10T11:52:32.878Z,13.85
2023-03-10T11:53:32.913Z,13.83
2023-03-10T11:54:32.859Z,13.79
2023-03-10T11:55:32.852Z,13.85
2023-03-10T11:56:32.845Z,13.86
2023-03-10T11:57:32.833Z,13.77
2023-03-10T11:58:32.838Z,13.77
2023-03-10T11:59:32.857Z,13.77
2023-03-10T12:00:33.034Z,13.75
2023-03-10T12:01:32.797Z,13.74
2023-03-10T12:02:32.799Z,13.79
2023-03-10T12:03:32.832Z,13.71
2023-03-10T12:04:32.792Z,13.72
2023-03-10T12:05:32.813Z,13.78
2023-03-10T12:06:32.764Z,13.59
2023-03-10T12:07:32.752Z,13.59
2023-03-10T12:08:32.749Z,13.70
2023-03-10T12:09:32.767Z,13.67
2023-03-10T12:10:32.751Z,13.54
2023-03-10T12:11:32.741Z,13.54
2023-03-10T12:12:32.729Z,13.50
2023-03-10T12:13:32.936Z,13.46
2023-03-10T12:14:32.730Z,13.46
2023-03-10T12:15:32.688Z,13.44
2023-03-10T12:16:33.040Z,13.28
2023-03-10T12:17:32.693Z,13.19
2023-03-10T12:18:32.697Z,13.28
2023-03-10T12:19:32.657Z,13.11
2023-03-10T12:20:32.868Z,13.11
2023-03-10T12:21:32.679Z,13.00
2023-03-10T12:22:32.663Z,12.87
2023-03-10T12:23:32.635Z,12.82
2023-03-10T12:24:32.622Z,12.75
2023-03-10T12:25:32.659Z,12.75
2023-03-10T12:26:32.606Z,12.75
2023-03-10T12:27:32.599Z,12.79
2023-03-10T12:28:32.585Z,12.73
2023-03-10T12:29:32.584Z,12.65
2023-03-10T12:30:32.567Z,12.67
2023-03-10T12:31:32.631Z,12.67
2023-03-10T12:32:32.593Z,12.65
2023-03-10T12:33:32.537Z,12.65
2023-03-10T12:34:32.583Z,12.61
2023-03-10T12:35:32.525Z,12.64
2023-03-10T12:36:32.537Z,12.65
2023-03-10T12:37:32.519Z,12.70
2023-03-10T12:38:32.508Z,12.73
2023-03-10T12:39:32.493Z,12.61
2023-03-10T12:40:32.496Z,12.60
2023-03-10T12:41:32.533Z,12.65
2023-03-10T12:42:32.467Z,12.57
2023-03-10T12:43:32.466Z,12.58
2023-03-10T12:44:32.456Z,12.57
2023-03-10T12:45:32.444Z,12.47
2023-03-10T12:46:32.475Z,12.47
2023-03-10T12:47:32.628Z,12.47
2023-03-10T12:48:32.420Z,12.28
2023-03-10T12:49:32.419Z,12.37
2023-03-10T12:50:32.406Z,12.20
2023-03-10T12:51:32.404Z,12.29
2023-03-10T12:52:32.393Z,12.31
2023-03-10T12:53:32.585Z,12.28
2023-03-10T12:54:32.373Z,12.24
2023-03-10T12:55:32.403Z,12.25
2023-03-10T12:56:32.337Z,12.20
2023-03-10T12:57:32.412Z,12.22
2023-03-10T12:58:32.349Z,12.32
2023-03-10T12:59:32.322Z,12.35
2023-03-10T13:00:32.342Z,12.32
2023-03-10T13:01:32.337Z,12.37
2023-03-10T13:02:33.787Z,12.28
2023-03-10T13:03:32.355Z,12.49